sensor_id;sensor_type;location;lat;lon;timestamp;temperature;humidity
20370;DHT22;10344;47.592;9.600;2022-11-24T00:01:25;8.50;99.90
20370;DHT22;10344;47.592;9.600;2022-11-24T00:04:01;8.50;99.90
20370;DHT22;10344;47.592;9.600;2022-11-24T00:06:33;8.40;99.90
20370;DHT22;10344;47.592;9.600;2022-11-24T00:09:00;8.30;99.90
20370;DHT22;10344;47.592;9.600;2022-11-24T00:11:29;8.30;99.90
20370;DHT22;10344;47.592;9.600;2022-11-24T00:13:56;8.20;99.90
20370;DHT22;10344;47.592;9.600;2022-11-24T00:16:30;8.20;99.90
20370;DHT22;10344;47.592;9.600;2022-11-24T00:18:57;8.20;99.90
20370;DHT22;10344;47.592;9.600;2022-11-24T00:21:29;8.20;99.90
20370;DHT22;10344;47.592;9.600;2022-11-24T00:23:56;8.20;99.90
20370;DHT22;10344;47.592;9.600;2022-11-24T00:26:34;8.20;99.90
20370;DHT22;10344;47.592;9.600;2022-11-24T00:29:03;8.40;99.90
20370;DHT22;10344;47.592;9.600;2022-11-24T00:31:36;8.40;99.90
20370;DHT22;10344;47.592;9.600;2022-11-24T00:34:07;8.40;99.90
20370;DHT22;10344;47.592;9.600;2022-11-24T00:36:37;8.40;99.90
20370;DHT22;10344;47.592;9.600;2022-11-24T00:39:11;8.30;99.90
20370;DHT22;10344;47.592;9.600;2022-11-24T00:41:44;8.20;99.90
20370;DHT22;10344;47.592;9.600;2022-11-24T00:44:15;8.10;99.90
20370;DHT22;10344;47.592;9.600;2022-11-24T00:46:40;8.20;99.90
20370;DHT22;10344;47.592;9.600;2022-11-24T00:49:06;8.20;99.90
20370;DHT22;10344;47.592;9.600;2022-11-24T00:51:34;8.20;99.90
20370;DHT22;10344;47.592;9.600;2022-11-24T00:54:00;8.30;99.90
20370;DHT22;10344;47.592;9.600;2022-11-24T00:56:27;8.30;99.90
20370;DHT22;10344;47.592;9.600;2022-11-24T00:58:56;8.30;99.90
20370;DHT22;10344;47.592;9.600;2022-11-24T01:01:24;8.30;99.90
20370;DHT22;10344;47.592;9.600;2022-11-24T01:03:53;8.40;99.90
20370;DHT22;10344;47.592;9.600;2022-11-24T01:06:22;8.50;99.90
20370;DHT22;10344;47.592;9.600;2022-11-24T01:08:48;8.50;99.90
20370;DHT22;10344;47.592;9.600;2022-11-24T01:13:46;8.30;99.90
20370;DHT22;10344;47.592;9.600;2022-11-24T01:16:20;8.20;99.90
20370;DHT22;10344;47.592;9.600;2022-11-24T01:18:46;8.10;99.90
20370;DHT22;10344;47.592;9.600;2022-11-24T01:21:15;8.00;99.90
20370;DHT22;10344;47.592;9.600;2022-11-24T01:23:41;7.90;99.90
20370;DHT22;10344;47.592;9.600;2022-11-24T01:26:11;7.90;99.90
20370;DHT22;10344;47.592;9.600;2022-11-24T01:28:38;7.80;99.90
20370;DHT22;10344;47.592;9.600;2022-11-24T01:31:05;7.70;99.90
20370;DHT22;10344;47.592;9.600;2022-11-24T01:33:33;7.70;99.90
20370;DHT22;10344;47.592;9.600;2022-11-24T01:35:59;7.70;99.90
20370;DHT22;10344;47.592;9.600;2022-11-24T01:38:29;7.70;99.90
20370;DHT22;10344;47.592;9.600;2022-11-24T01:43:28;7.60;99.90
20370;DHT22;10344;47.592;9.600;2022-11-24T01:46:03;7.60;99.90
20370;DHT22;10344;47.592;9.600;2022-11-24T01:48:35;7.60;99.90
20370;DHT22;10344;47.592;9.600;2022-11-24T01:51:11;7.60;99.90
20370;DHT22;10344;47.592;9.600;2022-11-24T01:53:39;7.70;99.90
20370;DHT22;10344;47.592;9.600;2022-11-24T01:56:10;7.80;99.90
20370;DHT22;10344;47.592;9.600;2022-11-24T01:58:40;7.80;99.90
20370;DHT22;10344;47.592;9.600;2022-11-24T02:01:07;7.70;99.90
20370;DHT22;10344;47.592;9.600;2022-11-24T02:03:37;7.70;99.90
20370;DHT22;10344;47.592;9.600;2022-11-24T02:06:08;7.70;99.90
20370;DHT22;10344;47.592;9.600;2022-11-24T02:08:57;7.60;99.90
20370;DHT22;10344;47.592;9.600;2022-11-24T02:11:28;7.60;99.90
20370;DHT22;10344;47.592;9.600;2022-11-24T02:13:55;7.70;99.90
20370;DHT22;10344;47.592;9.600;2022-11-24T02:16:21;7.60;99.90
20370;DHT22;10344;47.592;9.600;2022-11-24T02:18:47;7.60;99.90
20370;DHT22;10344;47.592;9.600;2022-11-24T02:21:14;7.60;99.90
20370;DHT22;10344;47.592;9.600;2022-11-24T02:26:43;7.60;99.90
20370;DHT22;10344;47.592;9.600;2022-11-24T02:29:18;7.60;99.90
20370;DHT22;10344;47.592;9.600;2022-11-24T02:31:51;7.70;99.90
20370;DHT22;10344;47.592;9.600;2022-11-24T02:34:19;7.90;99.90
20370;DHT22;10344;47.592;9.600;2022-11-24T02:36:47;8.00;99.90
20370;DHT22;10344;47.592;9.600;2022-11-24T02:39:16;8.20;99.90
20370;DHT22;10344;47.592;9.600;2022-11-24T02:41:52;8.40;99.90
20370;DHT22;10344;47.592;9.600;2022-11-24T02:44:40;8.40;99.90
20370;DHT22;10344;47.592;9.600;2022-11-24T02:47:09;8.50;99.90
20370;DHT22;10344;47.592;9.600;2022-11-24T02:49:35;8.60;99.90
20370;DHT22;10344;47.592;9.600;2022-11-24T02:52:03;8.60;99.90
20370;DHT22;10344;47.592;9.600;2022-11-24T02:54:31;8.60;99.90
20370;DHT22;10344;47.592;9.600;2022-11-24T02:56:59;8.60;99.90
20370;DHT22;10344;47.592;9.600;2022-11-24T02:59:25;8.50;99.90
20370;DHT22;10344;47.592;9.600;2022-11-24T03:01:53;8.60;99.90
20370;DHT22;10344;47.592;9.600;2022-11-24T03:04:36;8.60;99.90
20370;DHT22;10344;47.592;9.600;2022-11-24T03:07:09;8.70;99.90
20370;DHT22;10344;47.592;9.600;2022-11-24T03:09:34;8.80;99.90
20370;DHT22;10344;47.592;9.600;2022-11-24T03:12:02;8.90;99.90
20370;DHT22;10344;47.592;9.600;2022-11-24T03:14:31;8.90;99.90
20370;DHT22;10344;47.592;9.600;2022-11-24T03:17:01;8.80;99.90
20370;DHT22;10344;47.592;9.600;2022-11-24T03:19:26;8.80;99.90
20370;DHT22;10344;47.592;9.600;2022-11-24T03:21:54;8.80;99.90
20370;DHT22;10344;47.592;9.600;2022-11-24T03:24:20;8.80;99.90
20370;DHT22;10344;47.592;9.600;2022-11-24T03:26:48;8.80;99.90
20370;DHT22;10344;47.592;9.600;2022-11-24T03:29:13;8.90;99.90
20370;DHT22;10344;47.592;9.600;2022-11-24T03:31:41;8.90;99.90
20370;DHT22;10344;47.592;9.600;2022-11-24T03:34:07;8.70;99.90
20370;DHT22;10344;47.592;9.600;2022-11-24T03:36:33;8.60;99.90
20370;DHT22;10344;47.592;9.600;2022-11-24T03:39:01;8.60;99.90
20370;DHT22;10344;47.592;9.600;2022-11-24T03:41:26;8.50;99.90
20370;DHT22;10344;47.592;9.600;2022-11-24T03:43:52;8.50;99.90
20370;DHT22;10344;47.592;9.600;2022-11-24T03:46:20;8.50;99.90
20370;DHT22;10344;47.592;9.600;2022-11-24T03:48:45;8.60;99.90
20370;DHT22;10344;47.592;9.600;2022-11-24T03:51:11;8.70;99.90
20370;DHT22;10344;47.592;9.600;2022-11-24T03:53:39;8.70;99.90
20370;DHT22;10344;47.592;9.600;2022-11-24T03:56:05;8.70;99.90
20370;DHT22;10344;47.592;9.600;2022-11-24T03:58:33;8.80;99.90
20370;DHT22;10344;47.592;9.600;2022-11-24T04:01:01;8.90;99.90
20370;DHT22;10344;47.592;9.600;2022-11-24T04:03:28;8.90;99.90
20370;DHT22;10344;47.592;9.600;2022-11-24T04:05:53;8.90;99.90
20370;DHT22;10344;47.592;9.600;2022-11-24T04:08:19;8.80;99.90
20370;DHT22;10344;47.592;9.600;2022-11-24T04:10:50;8.90;99.90
20370;DHT22;10344;47.592;9.600;2022-11-24T04:13:19;8.90;99.90
20370;DHT22;10344;47.592;9.600;2022-11-24T04:15:47;8.90;99.90
20370;DHT22;10344;47.592;9.600;2022-11-24T04:18:13;8.90;99.90
20370;DHT22;10344;47.592;9.600;2022-11-24T04:20:41;8.90;99.90
20370;DHT22;10344;47.592;9.600;2022-11-24T04:23:09;8.90;99.90
20370;DHT22;10344;47.592;9.600;2022-11-24T04:25:35;8.80;99.90
20370;DHT22;10344;47.592;9.600;2022-11-24T04:28:01;8.90;99.90
20370;DHT22;10344;47.592;9.600;2022-11-24T04:30:29;8.90;99.90
20370;DHT22;10344;47.592;9.600;2022-11-24T04:33:01;9.00;99.90
20370;DHT22;10344;47.592;9.600;2022-11-24T04:35:36;9.10;99.90
20370;DHT22;10344;47.592;9.600;2022-11-24T04:38:01;9.10;99.90
20370;DHT22;10344;47.592;9.600;2022-11-24T04:40:29;9.20;99.90
20370;DHT22;10344;47.592;9.600;2022-11-24T04:42:55;9.10;99.90
20370;DHT22;10344;47.592;9.600;2022-11-24T04:45:26;9.20;99.90
20370;DHT22;10344;47.592;9.600;2022-11-24T04:47:53;9.30;99.90
20370;DHT22;10344;47.592;9.600;2022-11-24T04:50:21;9.20;99.90
20370;DHT22;10344;47.592;9.600;2022-11-24T04:52:52;9.20;99.90
20370;DHT22;10344;47.592;9.600;2022-11-24T04:55:18;9.10;99.90
20370;DHT22;10344;47.592;9.600;2022-11-24T04:57:43;9.00;99.90
20370;DHT22;10344;47.592;9.600;2022-11-24T05:00:12;9.00;99.90
20370;DHT22;10344;47.592;9.600;2022-11-24T05:02:40;9.00;99.90
20370;DHT22;10344;47.592;9.600;2022-11-24T05:05:08;9.00;99.90
20370;DHT22;10344;47.592;9.600;2022-11-24T05:07:35;9.00;99.90
20370;DHT22;10344;47.592;9.600;2022-11-24T05:10:19;9.00;99.90
20370;DHT22;10344;47.592;9.600;2022-11-24T05:13:21;8.80;99.90
20370;DHT22;10344;47.592;9.600;2022-11-24T05:16:50;8.80;99.90
20370;DHT22;10344;47.592;9.600;2022-11-24T05:20:07;9.00;99.90
20370;DHT22;10344;47.592;9.600;2022-11-24T05:23:21;9.10;99.90
20370;DHT22;10344;47.592;9.600;2022-11-24T05:33:03;9.00;99.90
20370;DHT22;10344;47.592;9.600;2022-11-24T05:36:14;9.00;99.90
20370;DHT22;10344;47.592;9.600;2022-11-24T05:39:31;9.10;99.90
20370;DHT22;10344;47.592;9.600;2022-11-24T05:42:40;9.20;99.90
20370;DHT22;10344;47.592;9.600;2022-11-24T05:45:58;9.10;99.90
20370;DHT22;10344;47.592;9.600;2022-11-24T05:48:57;9.00;99.90
20370;DHT22;10344;47.592;9.600;2022-11-24T05:52:05;8.90;99.90
20370;DHT22;10344;47.592;9.600;2022-11-24T05:55:19;8.80;99.90
20370;DHT22;10344;47.592;9.600;2022-11-24T06:01:41;8.80;99.90
20370;DHT22;10344;47.592;9.600;2022-11-24T06:04:34;8.80;99.90
20370;DHT22;10344;47.592;9.600;2022-11-24T06:07:27;8.80;99.90
20370;DHT22;10344;47.592;9.600;2022-11-24T06:10:17;8.80;99.90
20370;DHT22;10344;47.592;9.600;2022-11-24T06:12:46;8.80;99.90
20370;DHT22;10344;47.592;9.600;2022-11-24T06:16:27;8.70;99.90
20370;DHT22;10344;47.592;9.600;2022-11-24T06:19:57;8.90;99.90
20370;DHT22;10344;47.592;9.600;2022-11-24T06:22:31;9.10;99.90
20370;DHT22;10344;47.592;9.600;2022-11-24T06:25:26;9.10;99.90
20370;DHT22;10344;47.592;9.600;2022-11-24T06:28:04;9.00;99.90
20370;DHT22;10344;47.592;9.600;2022-11-24T06:30:32;8.80;99.90
20370;DHT22;10344;47.592;9.600;2022-11-24T06:33:42;8.70;99.90
20370;DHT22;10344;47.592;9.600;2022-11-24T06:36:49;8.60;99.90
20370;DHT22;10344;47.592;9.600;2022-11-24T06:39:49;8.40;99.90
20370;DHT22;10344;47.592;9.600;2022-11-24T06:42:36;8.50;99.90
20370;DHT22;10344;47.592;9.600;2022-11-24T06:45:50;8.40;99.90
20370;DHT22;10344;47.592;9.600;2022-11-24T06:48:59;8.10;99.90
20370;DHT22;10344;47.592;9.600;2022-11-24T06:51:40;7.90;99.90
20370;DHT22;10344;47.592;9.600;2022-11-24T06:54:19;7.70;99.90
20370;DHT22;10344;47.592;9.600;2022-11-24T06:57:21;7.60;99.90
20370;DHT22;10344;47.592;9.600;2022-11-24T07:00:32;7.50;99.90
20370;DHT22;10344;47.592;9.600;2022-11-24T07:03:35;7.40;99.90
20370;DHT22;10344;47.592;9.600;2022-11-24T10:35:12;10.10;99.90
20370;DHT22;10344;47.592;9.600;2022-11-24T10:41:49;10.40;99.90
20370;DHT22;10344;47.592;9.600;2022-11-24T10:44:35;10.20;99.90
20370;DHT22;10344;47.592;9.600;2022-11-24T11:17:43;8.90;99.90
20370;DHT22;10344;47.592;9.600;2022-11-24T12:39:55;10.50;99.90
20370;DHT22;10344;47.592;9.600;2022-11-24T12:55:21;10.70;99.90
20370;DHT22;10344;47.592;9.600;2022-11-24T13:07:15;10.50;99.90
20370;DHT22;10344;47.592;9.600;2022-11-24T13:13:19;10.80;99.90
20370;DHT22;10344;47.592;9.600;2022-11-24T13:16:15;10.90;99.90
20370;DHT22;10344;47.592;9.600;2022-11-24T13:19:06;11.00;99.90
20370;DHT22;10344;47.592;9.600;2022-11-24T13:29:39;10.80;99.90
20370;DHT22;10344;47.592;9.600;2022-11-24T13:40:02;10.60;99.90
20370;DHT22;10344;47.592;9.600;2022-11-24T14:08:15;10.50;99.90
20370;DHT22;10344;47.592;9.600;2022-11-24T14:10:42;10.50;99.90
20370;DHT22;10344;47.592;9.600;2022-11-24T14:19:09;10.20;99.90
20370;DHT22;10344;47.592;9.600;2022-11-24T14:21:39;10.20;99.90
20370;DHT22;10344;47.592;9.600;2022-11-24T14:24:22;10.20;99.90
20370;DHT22;10344;47.592;9.600;2022-11-24T14:26:48;10.10;99.90
20370;DHT22;10344;47.592;9.600;2022-11-24T14:29:21;10.10;99.90
20370;DHT22;10344;47.592;9.600;2022-11-24T14:31:55;10.10;99.90
20370;DHT22;10344;47.592;9.600;2022-11-24T14:34:26;10.00;99.90
20370;DHT22;10344;47.592;9.600;2022-11-24T14:36:52;10.00;99.90
20370;DHT22;10344;47.592;9.600;2022-11-24T14:39:22;10.00;99.90
20370;DHT22;10344;47.592;9.600;2022-11-24T14:47:29;10.00;99.90
20370;DHT22;10344;47.592;9.600;2022-11-24T14:50:14;9.90;99.90
20370;DHT22;10344;47.592;9.600;2022-11-24T14:52:48;9.90;99.90
20370;DHT22;10344;47.592;9.600;2022-11-24T14:55:41;9.90;99.90
20370;DHT22;10344;47.592;9.600;2022-11-24T14:58:27;9.80;99.90
20370;DHT22;10344;47.592;9.600;2022-11-24T15:04:10;9.40;99.90
20370;DHT22;10344;47.592;9.600;2022-11-24T15:06:36;9.30;99.90
20370;DHT22;10344;47.592;9.600;2022-11-24T15:09:04;9.20;99.90
20370;DHT22;10344;47.592;9.600;2022-11-24T15:11:51;9.00;99.90
20370;DHT22;10344;47.592;9.600;2022-11-24T15:17:50;8.90;99.90
20370;DHT22;10344;47.592;9.600;2022-11-24T15:21:03;8.80;99.90
20370;DHT22;10344;47.592;9.600;2022-11-24T15:24:14;8.70;99.90
20370;DHT22;10344;47.592;9.600;2022-11-24T15:27:29;8.60;99.90
20370;DHT22;10344;47.592;9.600;2022-11-24T15:29:59;8.60;99.90
20370;DHT22;10344;47.592;9.600;2022-11-24T15:33:14;8.50;99.90
20370;DHT22;10344;47.592;9.600;2022-11-24T15:36:00;8.40;99.90
20370;DHT22;10344;47.592;9.600;2022-11-24T15:38:28;8.30;99.90
20370;DHT22;10344;47.592;9.600;2022-11-24T15:40:59;8.20;99.90
20370;DHT22;10344;47.592;9.600;2022-11-24T15:43:33;8.10;99.90
20370;DHT22;10344;47.592;9.600;2022-11-24T15:46:00;8.10;99.90
20370;DHT22;10344;47.592;9.600;2022-11-24T15:48:27;8.20;99.90
20370;DHT22;10344;47.592;9.600;2022-11-24T15:50:56;8.20;99.90
20370;DHT22;10344;47.592;9.600;2022-11-24T15:54:02;8.10;99.90
20370;DHT22;10344;47.592;9.600;2022-11-24T15:56:33;8.20;99.90
20370;DHT22;10344;47.592;9.600;2022-11-24T15:59:03;8.10;99.90
20370;DHT22;10344;47.592;9.600;2022-11-24T16:01:30;7.90;99.90
20370;DHT22;10344;47.592;9.600;2022-11-24T16:03:59;7.80;99.90
20370;DHT22;10344;47.592;9.600;2022-11-24T16:06:25;7.80;99.90
20370;DHT22;10344;47.592;9.600;2022-11-24T16:08:53;7.70;99.90
20370;DHT22;10344;47.592;9.600;2022-11-24T16:11:19;7.70;99.90
20370;DHT22;10344;47.592;9.600;2022-11-24T16:13:45;7.60;99.90
20370;DHT22;10344;47.592;9.600;2022-11-24T16:19:57;7.60;99.90
20370;DHT22;10344;47.592;9.600;2022-11-24T16:22:49;7.40;99.90
20370;DHT22;10344;47.592;9.600;2022-11-24T16:26:17;7.30;99.90
20370;DHT22;10344;47.592;9.600;2022-11-24T16:29:30;7.10;99.90
20370;DHT22;10344;47.592;9.600;2022-11-24T16:32:25;7.00;99.90
20370;DHT22;10344;47.592;9.600;2022-11-24T16:34:51;6.90;99.90
20370;DHT22;10344;47.592;9.600;2022-11-24T16:37:17;6.80;99.90
20370;DHT22;10344;47.592;9.600;2022-11-24T16:40:03;6.60;99.90
20370;DHT22;10344;47.592;9.600;2022-11-24T16:42:29;6.60;99.90
20370;DHT22;10344;47.592;9.600;2022-11-24T16:45:36;6.50;99.90
20370;DHT22;10344;47.592;9.600;2022-11-24T16:48:05;6.40;99.90
20370;DHT22;10344;47.592;9.600;2022-11-24T16:51:09;6.40;99.90
20370;DHT22;10344;47.592;9.600;2022-11-24T16:54:19;6.30;99.90
20370;DHT22;10344;47.592;9.600;2022-11-24T16:57:39;6.20;99.90
20370;DHT22;10344;47.592;9.600;2022-11-24T17:00:45;6.30;99.90
20370;DHT22;10344;47.592;9.600;2022-11-24T17:04:09;6.20;99.90
20370;DHT22;10344;47.592;9.600;2022-11-24T17:07:31;6.10;99.90
20370;DHT22;10344;47.592;9.600;2022-11-24T17:10:24;6.10;99.90
20370;DHT22;10344;47.592;9.600;2022-11-24T17:12:50;6.10;99.90
20370;DHT22;10344;47.592;9.600;2022-11-24T17:15:15;6.00;99.90
20370;DHT22;10344;47.592;9.600;2022-11-24T17:17:41;6.00;99.90
20370;DHT22;10344;47.592;9.600;2022-11-24T17:20:09;6.00;99.90
20370;DHT22;10344;47.592;9.600;2022-11-24T17:22:38;6.00;99.90
20370;DHT22;10344;47.592;9.600;2022-11-24T17:25:05;6.00;99.90
20370;DHT22;10344;47.592;9.600;2022-11-24T17:27:33;6.00;99.90
20370;DHT22;10344;47.592;9.600;2022-11-24T17:29:58;6.00;99.90
20370;DHT22;10344;47.592;9.600;2022-11-24T17:32:24;6.00;99.90
20370;DHT22;10344;47.592;9.600;2022-11-24T17:34:49;6.10;99.90
20370;DHT22;10344;47.592;9.600;2022-11-24T17:37:23;6.10;99.90
20370;DHT22;10344;47.592;9.600;2022-11-24T17:39:50;6.10;99.90
20370;DHT22;10344;47.592;9.600;2022-11-24T17:42:16;6.20;99.90
20370;DHT22;10344;47.592;9.600;2022-11-24T17:44:42;6.30;99.90
20370;DHT22;10344;47.592;9.600;2022-11-24T17:47:11;6.20;99.90
20370;DHT22;10344;47.592;9.600;2022-11-24T17:49:39;6.30;99.90
20370;DHT22;10344;47.592;9.600;2022-11-24T17:52:07;6.40;99.90
20370;DHT22;10344;47.592;9.600;2022-11-24T17:54:32;6.50;99.90
20370;DHT22;10344;47.592;9.600;2022-11-24T17:56:58;6.40;99.90
20370;DHT22;10344;47.592;9.600;2022-11-24T17:59:26;6.40;99.90
20370;DHT22;10344;47.592;9.600;2022-11-24T18:01:52;6.40;99.90
20370;DHT22;10344;47.592;9.600;2022-11-24T18:04:17;6.30;99.90
20370;DHT22;10344;47.592;9.600;2022-11-24T18:06:44;6.30;99.90
20370;DHT22;10344;47.592;9.600;2022-11-24T18:09:11;6.30;99.90
20370;DHT22;10344;47.592;9.600;2022-11-24T18:11:37;6.20;99.90
20370;DHT22;10344;47.592;9.600;2022-11-24T18:14:06;6.20;99.90
20370;DHT22;10344;47.592;9.600;2022-11-24T18:16:35;6.30;99.90
20370;DHT22;10344;47.592;9.600;2022-11-24T18:19:04;6.30;99.90
20370;DHT22;10344;47.592;9.600;2022-11-24T18:21:37;6.30;99.90
20370;DHT22;10344;47.592;9.600;2022-11-24T18:24:03;6.20;99.90
20370;DHT22;10344;47.592;9.600;2022-11-24T18:26:31;6.10;99.90
20370;DHT22;10344;47.592;9.600;2022-11-24T18:28:57;6.20;99.90
20370;DHT22;10344;47.592;9.600;2022-11-24T18:31:22;6.10;99.90
20370;DHT22;10344;47.592;9.600;2022-11-24T18:33:48;6.10;99.90
20370;DHT22;10344;47.592;9.600;2022-11-24T18:36:17;6.00;99.90
20370;DHT22;10344;47.592;9.600;2022-11-24T18:38:43;6.00;99.90
20370;DHT22;10344;47.592;9.600;2022-11-24T18:41:13;6.00;99.90
20370;DHT22;10344;47.592;9.600;2022-11-24T18:43:41;6.00;99.90
20370;DHT22;10344;47.592;9.600;2022-11-24T18:46:16;6.00;99.90
20370;DHT22;10344;47.592;9.600;2022-11-24T18:48:43;6.10;99.90
20370;DHT22;10344;47.592;9.600;2022-11-24T18:51:12;6.20;99.90
20370;DHT22;10344;47.592;9.600;2022-11-24T18:53:42;6.20;99.90
20370;DHT22;10344;47.592;9.600;2022-11-24T18:56:12;6.20;99.90
20370;DHT22;10344;47.592;9.600;2022-11-24T18:58:41;6.20;99.90
20370;DHT22;10344;47.592;9.600;2022-11-24T19:03:49;6.00;99.90
20370;DHT22;10344;47.592;9.600;2022-11-24T19:06:24;5.90;99.90
20370;DHT22;10344;47.592;9.600;2022-11-24T19:08:54;5.90;99.90
20370;DHT22;10344;47.592;9.600;2022-11-24T19:11:28;5.90;99.90
20370;DHT22;10344;47.592;9.600;2022-11-24T19:13:57;6.00;99.90
20370;DHT22;10344;47.592;9.600;2022-11-24T19:16:23;6.00;99.90
20370;DHT22;10344;47.592;9.600;2022-11-24T19:18:49;6.10;99.90
20370;DHT22;10344;47.592;9.600;2022-11-24T19:21:18;6.10;99.90
20370;DHT22;10344;47.592;9.600;2022-11-24T19:23:44;6.00;99.90
20370;DHT22;10344;47.592;9.600;2022-11-24T19:26:12;6.10;99.90
20370;DHT22;10344;47.592;9.600;2022-11-24T19:28:38;6.20;99.90
20370;DHT22;10344;47.592;9.600;2022-11-24T19:31:06;6.20;99.90
20370;DHT22;10344;47.592;9.600;2022-11-24T19:33:34;6.20;99.90
20370;DHT22;10344;47.592;9.600;2022-11-24T19:38:31;6.30;99.90
20370;DHT22;10344;47.592;9.600;2022-11-24T19:41:07;6.30;99.90
20370;DHT22;10344;47.592;9.600;2022-11-24T19:43:34;6.30;99.90
20370;DHT22;10344;47.592;9.600;2022-11-24T19:46:11;6.20;99.90
20370;DHT22;10344;47.592;9.600;2022-11-24T19:48:45;6.20;99.90
20370;DHT22;10344;47.592;9.600;2022-11-24T19:51:16;6.20;99.90
20370;DHT22;10344;47.592;9.600;2022-11-24T19:53:45;6.30;99.90
20370;DHT22;10344;47.592;9.600;2022-11-24T19:58:40;6.30;99.90
20370;DHT22;10344;47.592;9.600;2022-11-24T20:01:24;6.40;99.90
20370;DHT22;10344;47.592;9.600;2022-11-24T20:06:26;6.20;99.90
20370;DHT22;10344;47.592;9.600;2022-11-24T20:08:56;6.20;99.90
20370;DHT22;10344;47.592;9.600;2022-11-24T20:11:23;6.20;99.90
20370;DHT22;10344;47.592;9.600;2022-11-24T20:13:48;6.20;99.90
20370;DHT22;10344;47.592;9.600;2022-11-24T20:16:25;6.30;99.90
20370;DHT22;10344;47.592;9.600;2022-11-24T20:18:58;6.20;99.90
20370;DHT22;10344;47.592;9.600;2022-11-24T20:21:27;6.20;99.90
20370;DHT22;10344;47.592;9.600;2022-11-24T20:26:26;6.10;99.90
20370;DHT22;10344;47.592;9.600;2022-11-24T20:28:56;6.10;99.90
20370;DHT22;10344;47.592;9.600;2022-11-24T20:31:34;6.10;99.90
20370;DHT22;10344;47.592;9.600;2022-11-24T20:34:00;6.20;99.90
20370;DHT22;10344;47.592;9.600;2022-11-24T20:36:28;6.20;99.90
20370;DHT22;10344;47.592;9.600;2022-11-24T20:38:57;6.20;99.90
20370;DHT22;10344;47.592;9.600;2022-11-24T20:41:28;6.20;99.90
20370;DHT22;10344;47.592;9.600;2022-11-24T20:44:02;6.10;99.90
20370;DHT22;10344;47.592;9.600;2022-11-24T20:46:35;6.10;99.90
20370;DHT22;10344;47.592;9.600;2022-11-24T20:49:06;6.10;99.90
20370;DHT22;10344;47.592;9.600;2022-11-24T20:51:35;6.10;99.90
20370;DHT22;10344;47.592;9.600;2022-11-24T20:54:04;6.10;99.90
20370;DHT22;10344;47.592;9.600;2022-11-24T20:56:34;6.10;99.90
20370;DHT22;10344;47.592;9.600;2022-11-24T20:59:03;6.10;99.90
20370;DHT22;10344;47.592;9.600;2022-11-24T21:01:31;6.20;99.90
20370;DHT22;10344;47.592;9.600;2022-11-24T21:04:00;6.20;99.90
20370;DHT22;10344;47.592;9.600;2022-11-24T21:06:27;6.20;99.90
20370;DHT22;10344;47.592;9.600;2022-11-24T21:08:54;6.20;99.90
20370;DHT22;10344;47.592;9.600;2022-11-24T21:11:20;6.10;99.90
20370;DHT22;10344;47.592;9.600;2022-11-24T21:13:47;6.10;99.90
20370;DHT22;10344;47.592;9.600;2022-11-24T21:18:46;6.10;99.90
20370;DHT22;10344;47.592;9.600;2022-11-24T21:21:17;6.10;99.90
20370;DHT22;10344;47.592;9.600;2022-11-24T21:23:46;6.10;99.90
20370;DHT22;10344;47.592;9.600;2022-11-24T21:26:13;6.10;99.90
20370;DHT22;10344;47.592;9.600;2022-11-24T21:28:42;6.00;99.90
20370;DHT22;10344;47.592;9.600;2022-11-24T21:31:13;6.10;99.90
20370;DHT22;10344;47.592;9.600;2022-11-24T21:33:47;6.00;99.90
20370;DHT22;10344;47.592;9.600;2022-11-24T21:36:22;6.10;99.90
20370;DHT22;10344;47.592;9.600;2022-11-24T21:38:54;6.10;99.90
20370;DHT22;10344;47.592;9.600;2022-11-24T21:41:24;6.10;99.90
20370;DHT22;10344;47.592;9.600;2022-11-24T21:43:54;6.00;99.90
20370;DHT22;10344;47.592;9.600;2022-11-24T21:46:23;6.00;99.90
20370;DHT22;10344;47.592;9.600;2022-11-24T21:48:51;6.00;99.90
20370;DHT22;10344;47.592;9.600;2022-11-24T21:51:19;6.00;99.90
20370;DHT22;10344;47.592;9.600;2022-11-24T21:53:45;6.00;99.90
20370;DHT22;10344;47.592;9.600;2022-11-24T21:56:17;6.00;99.90
20370;DHT22;10344;47.592;9.600;2022-11-24T21:58:53;6.00;99.90
20370;DHT22;10344;47.592;9.600;2022-11-24T22:01:21;6.10;99.90
20370;DHT22;10344;47.592;9.600;2022-11-24T22:03:49;6.00;99.90
20370;DHT22;10344;47.592;9.600;2022-11-24T22:06:18;6.00;99.90
20370;DHT22;10344;47.592;9.600;2022-11-24T22:08:45;6.10;99.90
20370;DHT22;10344;47.592;9.600;2022-11-24T22:11:22;6.10;99.90
20370;DHT22;10344;47.592;9.600;2022-11-24T22:13:51;6.10;99.90
20370;DHT22;10344;47.592;9.600;2022-11-24T22:16:21;6.10;99.90
20370;DHT22;10344;47.592;9.600;2022-11-24T22:18:47;6.10;99.90
20370;DHT22;10344;47.592;9.600;2022-11-24T22:21:17;6.10;99.90
20370;DHT22;10344;47.592;9.600;2022-11-24T22:23:50;6.10;99.90
20370;DHT22;10344;47.592;9.600;2022-11-24T22:26:18;6.00;99.90
20370;DHT22;10344;47.592;9.600;2022-11-24T22:28:46;6.00;99.90
20370;DHT22;10344;47.592;9.600;2022-11-24T22:31:17;6.00;99.90
20370;DHT22;10344;47.592;9.600;2022-11-24T22:33:48;6.10;99.90
20370;DHT22;10344;47.592;9.600;2022-11-24T22:36:17;6.20;99.90
20370;DHT22;10344;47.592;9.600;2022-11-24T22:38:43;6.00;99.90
20370;DHT22;10344;47.592;9.600;2022-11-24T22:41:12;6.00;99.90
20370;DHT22;10344;47.592;9.600;2022-11-24T22:43:41;6.00;99.90
20370;DHT22;10344;47.592;9.600;2022-11-24T22:46:12;6.10;99.90
20370;DHT22;10344;47.592;9.600;2022-11-24T22:48:41;6.10;99.90
20370;DHT22;10344;47.592;9.600;2022-11-24T22:51:08;6.10;99.90
20370;DHT22;10344;47.592;9.600;2022-11-24T22:53:34;6.10;99.90
20370;DHT22;10344;47.592;9.600;2022-11-24T22:56:06;6.10;99.90
20370;DHT22;10344;47.592;9.600;2022-11-24T22:58:32;6.10;99.90
20370;DHT22;10344;47.592;9.600;2022-11-24T23:01:13;6.10;99.90
20370;DHT22;10344;47.592;9.600;2022-11-24T23:03:40;5.90;99.90
20370;DHT22;10344;47.592;9.600;2022-11-24T23:06:18;5.90;99.90
20370;DHT22;10344;47.592;9.600;2022-11-24T23:08:46;5.90;99.90
20370;DHT22;10344;47.592;9.600;2022-11-24T23:11:14;5.90;99.90
20370;DHT22;10344;47.592;9.600;2022-11-24T23:13:41;5.90;99.90
20370;DHT22;10344;47.592;9.600;2022-11-24T23:16:10;5.90;99.90
20370;DHT22;10344;47.592;9.600;2022-11-24T23:18:38;5.90;99.90
20370;DHT22;10344;47.592;9.600;2022-11-24T23:21:18;6.00;99.90
20370;DHT22;10344;47.592;9.600;2022-11-24T23:23:47;6.10;99.90
20370;DHT22;10344;47.592;9.600;2022-11-24T23:26:18;6.00;99.90
20370;DHT22;10344;47.592;9.600;2022-11-24T23:28:44;6.00;99.90
20370;DHT22;10344;47.592;9.600;2022-11-24T23:31:12;6.20;99.90
20370;DHT22;10344;47.592;9.600;2022-11-24T23:33:38;6.20;99.90
20370;DHT22;10344;47.592;9.600;2022-11-24T23:36:12;6.20;99.90
20370;DHT22;10344;47.592;9.600;2022-11-24T23:38:38;6.20;99.90
20370;DHT22;10344;47.592;9.600;2022-11-24T23:41:09;6.20;99.90
20370;DHT22;10344;47.592;9.600;2022-11-24T23:43:37;6.20;99.90
20370;DHT22;10344;47.592;9.600;2022-11-24T23:46:04;6.20;99.90
20370;DHT22;10344;47.592;9.600;2022-11-24T23:48:36;6.20;99.90
20370;DHT22;10344;47.592;9.600;2022-11-24T23:53:39;6.10;99.90
20370;DHT22;10344;47.592;9.600;2022-11-24T23:56:05;6.10;99.90
20370;DHT22;10344;47.592;9.600;2022-11-24T23:58:33;6.20;99.90
